Time;durP1;ratioP1;P1;durP2;ratioP2;P2;SDS_P1;SDS_P2;PMS_P1;PMS_P2;Temp;Humidity;BMP_temperature;BMP_pressure;BME280_temperature;BME280_humidity;BME280_pressure;Samples;Min_cycle;Max_cycle;Signal;HPM_P1;HPM_P2
2022/12/17 13:08:07;;;;;;;68.03;29.05;;;;;;;0.49;72.91;100317.59;4483393;31;33393;-71
2022/12/17 13:10:35;;;;;;;53.50;22.30;;;;;;;0.47;73.09;100333.50;4481485;32;34045;-71
2022/12/17 13:13:16;;;;;;;52.33;21.55;;;;;;;0.74;71.89;100333.47;4480836;32;34526;-71
2022/12/17 13:15:47;;;;;;;69.82;28.42;;;;;;;0.67;72.21;100320.91;4481060;32;34207;-71
2022/12/17 13:18:28;;;;;;;61.30;26.55;;;;;;;0.35;73.19;100323.94;4485257;32;34158;-71
2022/12/17 13:21:18;;;;;;;46.75;21.10;;;;;;;0.63;72.83;100330.72;4480524;31;33828;-71
2022/12/17 13:23:46;;;;;;;46.37;20.73;;;;;;;1.00;71.19;100328.97;4478124;32;34845;-71
2022/12/17 13:26:20;;;;;;;48.85;21.30;;;;;;;0.55;72.37;100325.78;4485639;32;34383;-71
2022/12/17 13:28:54;;;;;;;;;;;;;;;0.54;71.91;100324.00;4485838;32;34234;-71
2022/12/17 13:31:25;;;;;;;54.17;21.60;;;;;;;0.58;72.66;100341.38;4485487;32;33871;-71
2022/12/17 13:34:24;;;;;;;58.70;24.92;;;;;;;0.69;72.47;100331.25;4475933;31;34697;-71
2022/12/17 13:37:10;;;;;;;67.35;30.83;;;;;;;0.74;71.91;100338.59;4481381;32;34349;-71
2022/12/17 13:40:03;;;;;;;59.03;22.55;;;;;;;0.39;73.02;100332.78;4483749;32;33599;-71
2022/12/17 13:42:33;;;;;;;58.92;25.58;;;;;;;0.46;72.61;100345.31;4479219;32;33531;-71
2022/12/17 13:45:02;;;;;;;54.97;23.73;;;;;;;0.39;73.18;100343.88;4473630;32;33980;-70
2022/12/17 13:47:32;;;;;;;58.10;24.63;;;;;;;0.32;73.02;100348.25;4483733;32;33796;-70
2022/12/17 13:50:02;;;;;;;60.25;25.65;;;;;;;0.18;73.51;100327.47;4471901;32;32117;-70
2022/12/17 13:52:51;;;;;;;52.47;24.17;;;;;;;0.33;73.78;100360.25;4472347;32;33508;-70
2022/12/17 13:55:22;;;;;;;64.18;24.08;;;;;;;0.07;73.63;100343.38;4481463;32;33791;-70
2022/12/17 13:57:50;;;;;;;53.67;25.80;;;;;;;0.26;73.71;100366.41;4479059;32;33903;-70
2022/12/17 14:00:22;;;;;;;72.07;31.83;;;;;;;0.28;73.26;100374.19;4483468;32;33275;-71
2022/12/17 14:02:51;;;;;;;62.88;25.15;;;;;;;0.09;73.25;100382.63;4484600;32;33994;-71
2022/12/17 14:05:23;;;;;;;56.03;23.58;;;;;;;-0.04;73.60;100394.94;4484209;32;33712;-70
2022/12/17 14:07:51;;;;;;;55.15;21.90;;;;;;;0.34;72.73;100390.06;4482975;32;33870;-70
2022/12/17 14:10:19;;;;;;;52.13;22.55;;;;;;;0.27;72.79;100387.66;4482950;32;33405;-70
2022/12/17 14:12:47;;;;;;;49.42;21.80;;;;;;;0.46;72.46;100390.31;4483124;32;33384;-70
2022/12/17 14:15:23;;;;;;;54.80;25.12;;;;;;;0.26;72.31;100396.09;4484133;32;32594;-70
2022/12/17 14:17:52;;;;;;;53.33;21.92;;;;;;;0.16;73.04;100402.84;4479891;32;33753;-71
2022/12/17 14:20:25;;;;;;;59.83;24.02;;;;;;;0.48;72.07;100404.97;4482921;32;34164;-70
2022/12/17 14:22:55;;;;;;;52.72;24.67;;;;;;;0.21;73.53;100400.72;4482994;32;33869;-71
2022/12/17 14:25:26;;;;;;;55.53;23.10;;;;;;;0.22;73.42;100399.09;4470007;32;32406;-70
2022/12/17 14:28:24;;;;;;;57.53;26.48;;;;;;;-0.09;74.51;100426.72;4482870;32;33326;-71
2022/12/17 14:31:03;;;;;;;62.25;24.80;;;;;;;-0.35;75.27;100432.72;4481395;32;32291;-70
2022/12/17 14:34:06;;;;;;;49.83;22.30;;;;;;;0.02;74.59;100443.94;4483018;32;34685;-71
2022/12/17 14:36:36;;;;;;;57.15;23.98;;;;;;;-0.15;74.25;100443.97;4484213;32;33933;-71
2022/12/17 14:39:23;;;;;;;61.58;25.48;;;;;;;-0.08;74.67;100448.88;4481009;32;33682;-71
2022/12/17 14:45:14;;;;;;;56.17;23.33;;;;;;;0.05;74.56;100456.97;4482094;31;33624;-71
2022/12/17 14:47:54;;;;;;;53.05;22.85;;;;;;;-0.16;74.87;100470.16;4483645;31;34726;-71
2022/12/17 14:50:21;;;;;;;57.78;23.15;;;;;;;0.10;73.57;100473.59;4473148;31;33235;-71
2022/12/17 14:52:53;;;;;;;41.08;18.10;;;;;;;0.13;73.26;100481.50;4488032;31;34243;-71
2022/12/17 14:55:26;;;;;;;50.53;20.92;;;;;;;-0.04;73.59;100501.91;4481665;31;249496;-71
2022/12/17 14:58:07;;;;;;;58.20;23.50;;;;;;;-0.06;74.08;100503.41;4489617;31;33985;-71
2022/12/17 15:00:39;;;;;;;58.22;24.08;;;;;;;0.07;73.64;100511.50;4484636;32;34617;-71
2022/12/17 15:03:16;;;;;;;54.65;21.02;;;;;;;-0.10;74.52;100506.41;4484546;32;33404;-71
2022/12/17 15:05:48;;;;;;;50.25;21.23;;;;;;;0.06;73.96;100509.72;4485992;31;33607;-72
2022/12/17 15:08:16;;;;;;;52.33;23.48;;;;;;;-0.04;74.55;100528.28;4473109;31;33874;-71
2022/12/17 15:10:43;;;;;;;59.00;23.30;;;;;;;-0.06;74.24;100528.87;4483534;31;33767;-71
2022/12/17 15:13:11;;;;;;;58.83;25.67;;;;;;;0.06;74.74;100525.00;4477202;31;34106;-71
2022/12/17 15:15:38;;;;;;;57.03;24.83;;;;;;;-0.70;77.83;100529.38;4484457;32;34499;-72
2022/12/17 15:18:07;;;;;;;53.75;22.52;;;;;;;-0.27;76.63;100527.66;4484836;32;33723;-72
2022/12/17 15:20:35;;;;;;;44.28;19.50;;;;;;;-0.31;76.13;100515.37;4483820;32;35046;-71
2022/12/17 15:23:03;;;;;;;46.22;21.48;;;;;;;-0.11;75.26;100515.69;4484182;32;33350;-72
2022/12/17 15:25:30;;;;;;;51.53;22.45;;;;;;;-0.54;77.02;100520.72;4480008;31;33913;-71
2022/12/17 15:27:58;;;;;;;46.50;21.87;;;;;;;-0.50;76.33;100517.72;4488715;31;33614;-71
2022/12/17 15:30:26;;;;;;;44.63;18.12;;;;;;;-0.45;76.41;100521.66;4484878;31;35213;-71
2022/12/17 15:32:54;;;;;;;47.95;19.30;;;;;;;-0.34;76.42;100536.34;4484411;32;33479;-71
2022/12/17 15:35:23;;;;;;;47.20;16.80;;;;;;;-0.36;76.88;100532.75;4486688;31;34058;-71
2022/12/17 15:37:52;;;;;;;46.40;18.27;;;;;;;-0.41;76.48;100539.00;4485875;31;33756;-71
2022/12/17 15:40:20;;;;;;;50.72;20.08;;;;;;;-0.50;77.13;100538.09;4485965;31;33987;-72
2022/12/17 15:45:34;;;;;;;39.78;14.43;;;;;;;-0.52;76.97;100524.31;4479163;31;34590;-72
2022/12/17 15:48:02;;;;;;;36.40;16.08;;;;;;;-0.22;75.38;100537.56;4482986;31;33470;-72
2022/12/17 15:50:30;;;;;;;38.75;14.85;;;;;;;-0.38;75.67;100539.34;4488114;31;33454;-71
2022/12/17 15:52:58;;;;;;;42.17;16.15;;;;;;;-0.33;75.29;100558.53;4482193;32;33413;-72
2022/12/17 15:55:25;;;;;;;37.97;14.87;;;;;;;-0.17;74.74;100544.75;4483571;32;34010;-72
2022/12/17 15:57:53;;;;;;;32.88;12.73;;;;;;;-0.45;75.48;100557.28;4481928;32;34659;-72
2022/12/17 16:00:21;;;;;;;37.78;15.25;;;;;;;-0.37;75.26;100533.47;4482062;32;34241;-72
2022/12/17 16:02:50;;;;;;;36.15;15.52;;;;;;;-0.29;75.60;100547.91;4478268;31;34017;-72
2022/12/17 16:05:18;;;;;;;47.10;18.45;;;;;;;-0.26;75.37;100566.00;4483682;32;34483;-71
2022/12/17 16:07:48;;;;;;;53.87;20.60;;;;;;;-0.51;75.79;100561.75;4471693;32;34662;-71
2022/12/17 16:10:17;;;;;;;74.07;30.88;;;;;;;-0.39;75.76;100562.97;4481454;32;33675;-71
2022/12/17 16:12:45;;;;;;;75.68;26.48;;;;;;;-0.32;75.41;100542.50;4483678;32;34328;-72
2022/12/17 16:15:13;;;;;;;52.70;19.83;;;;;;;-0.41;75.79;100555.22;4481819;32;34016;-71
2022/12/17 16:17:43;;;;;;;48.85;15.38;;;;;;;-0.34;76.01;100560.91;4483896;32;34394;-72
2022/12/17 16:20:11;;;;;;;80.60;31.37;;;;;;;-0.45;76.64;100572.56;4483396;32;33817;-71
2022/12/17 16:22:39;;;;;;;69.15;29.52;;;;;;;-0.22;75.92;100580.84;4482142;32;34033;-72
2022/12/17 16:25:07;;;;;;;42.08;17.27;;;;;;;-0.17;75.84;100595.66;4483515;32;33921;-72
2022/12/17 16:27:35;;;;;;;42.22;17.20;;;;;;;-0.26;76.04;100601.66;4483733;32;33970;-72
2022/12/17 16:30:03;;;;;;;38.20;16.80;;;;;;;-0.38;76.41;100608.06;4482259;32;32418;-72
2022/12/17 16:32:32;;;;;;;53.80;24.08;;;;;;;-0.52;77.17;100615.94;4483489;32;33437;-71
2022/12/17 16:35:04;;;;;;;51.15;19.60;;;;;;;-0.41;77.21;100626.47;4482664;31;33839;-71
2022/12/17 16:37:32;;;;;;;38.92;17.55;;;;;;;-0.16;76.68;100638.22;4485985;32;34071;-71
2022/12/17 16:40:01;;;;;;;44.38;20.65;;;;;;;-0.32;76.68;100631.59;4484660;32;34163;-71
2022/12/17 16:42:30;;;;;;;51.33;20.30;;;;;;;-0.46;77.11;100636.94;4483994;32;33355;-72
2022/12/17 16:44:58;;;;;;;51.37;21.35;;;;;;;-0.46;77.70;100652.22;4485450;32;33904;-72
2022/12/17 16:47:25;;;;;;;57.03;23.38;;;;;;;-0.36;77.38;100638.78;4484665;32;32472;-71
2022/12/17 16:49:54;;;;;;;47.17;18.95;;;;;;;-0.35;77.45;100635.47;4485360;32;34056;-71
2022/12/17 16:52:21;;;;;;;37.22;17.02;;;;;;;-0.43;78.24;100653.41;4485712;32;33055;-71
2022/12/17 16:54:49;;;;;;;39.30;15.10;;;;;;;-0.30;77.68;100660.66;4484248;32;32343;-72
2022/12/17 16:57:17;;;;;;;45.67;19.77;;;;;;;-0.43;77.99;100660.13;4484501;32;34680;-72
2022/12/17 16:59:45;;;;;;;40.78;16.98;;;;;;;-0.32;77.85;100682.50;4485442;32;34617;-72
2022/12/17 17:02:14;;;;;;;40.55;17.50;;;;;;;-0.45;77.98;100669.28;4485619;32;34418;-71
2022/12/17 17:04:42;;;;;;;45.95;18.10;;;;;;;-0.42;78.38;100689.97;4481411;32;33477;-71
2022/12/17 17:07:09;;;;;;;53.65;20.65;;;;;;;-0.25;77.43;100679.84;4476318;32;34146;-71
2022/12/17 17:09:37;;;;;;;41.72;15.23;;;;;;;-0.37;77.79;100686.22;4485276;32;33779;-71
2022/12/17 17:12:07;;;;;;;53.08;21.15;;;;;;;-0.43;77.94;100683.94;4485688;32;33302;-71
2022/12/17 17:14:34;;;;;;;53.63;18.92;;;;;;;-0.28;77.56;100689.69;4485470;32;33791;-71
2022/12/17 17:17:02;;;;;;;42.72;19.08;;;;;;;-0.37;78.01;100698.94;4485652;32;33389;-71
2022/12/17 17:19:30;;;;;;;45.38;18.10;;;;;;;-0.54;78.70;100688.69;4485568;32;33867;-71
2022/12/17 17:21:57;;;;;;;42.45;18.90;;;;;;;-0.54;78.74;100688.69;4484360;32;33580;-71
2022/12/17 17:24:25;;;;;;;43.42;16.48;;;;;;;-0.64;78.92;100692.84;4482238;31;33909;-71
2022/12/17 17:26:54;;;;;;;50.15;19.40;;;;;;;-0.57;79.17;100703.66;4482489;32;33642;-70
2022/12/17 17:29:21;;;;;;;51.65;21.50;;;;;;;-0.57;79.14;100703.66;4482130;32;33489;-71
2022/12/17 17:31:49;;;;;;;40.15;16.37;;;;;;;-0.56;79.19;100723.25;4482572;32;33457;-71
2022/12/17 17:34:38;;;;;;;44.28;19.48;;;;;;;-0.38;78.38;100722.63;4485007;32;34509;-71
2022/12/17 17:37:05;;;;;;;51.78;21.65;;;;;;;-0.26;77.55;100734.03;4485372;32;33806;-71
2022/12/17 17:39:33;;;;;;;46.37;19.20;;;;;;;-0.48;78.98;100735.16;4485155;32;34423;-71
2022/12/17 17:42:01;;;;;;;51.55;21.95;;;;;;;-0.41;78.30;100742.66;4484309;32;34756;-71
2022/12/17 17:44:29;;;;;;;44.95;19.55;;;;;;;-0.38;78.73;100742.97;4485942;31;33671;-71
2022/12/17 17:46:56;;;;;;;43.40;20.27;;;;;;;-0.23;77.45;100744.56;4484652;31;33718;-71
2022/12/17 17:49:24;;;;;;;52.50;22.42;;;;;;;-0.47;78.10;100744.56;4485273;32;34749;-71
2022/12/17 17:51:52;;;;;;;44.85;17.67;;;;;;;-0.49;78.66;100751.16;4485093;32;34094;-71
2022/12/17 17:54:38;;;;;;;68.87;26.58;;;;;;;-0.54;78.50;100749.75;4495686;31;34318;-69
2022/12/17 17:57:06;;;;;;;84.85;34.80;;;;;;;-0.34;77.87;100746.75;4484909;32;34727;-71
2022/12/17 17:59:33;;;;;;;55.60;23.48;;;;;;;-0.48;78.16;100760.59;4484754;32;34590;-71
2022/12/17 18:02:02;;;;;;;53.45;24.63;;;;;;;-0.33;77.64;100757.09;4485006;32;34763;-71
2022/12/17 18:04:31;;;;;;;54.92;22.10;;;;;;;-0.50;78.19;100773.16;4482631;32;33692;-71
2022/12/17 18:06:58;;;;;;;52.55;21.60;;;;;;;-0.29;77.74;100769.37;4484624;32;34498;-71
2022/12/17 18:09:46;;;;;;;54.38;22.17;;;;;;;-0.45;77.80;100778.72;4484901;32;33411;-71
2022/12/17 18:15:00;;;;;;;54.97;24.87;;;;;;;-0.50;77.90;100797.69;4481984;32;34066;-71
2022/12/17 18:17:49;;;;;;;55.47;24.00;;;;;;;-0.13;76.41;100801.53;4488653;31;32696;-71
2022/12/17 18:20:17;;;;;;;49.30;21.85;;;;;;;-0.05;75.77;100810.84;4482203;31;34292;-72
2022/12/17 18:22:45;;;;;;;54.05;21.20;;;;;;;-0.06;75.70;100814.13;4497342;31;34312;-72
2022/12/17 18:25:15;;;;;;;47.42;23.40;;;;;;;0.11;74.86;100816.75;4489717;31;33774;-71
2022/12/17 18:27:43;;;;;;;51.00;21.75;;;;;;;0.02;74.77;100823.47;4498718;31;34534;-71
2022/12/17 18:30:12;;;;;;;45.38;20.12;;;;;;;-0.06;75.08;100817.59;4498973;31;35179;-72
2022/12/17 18:32:40;;;;;;;48.63;20.52;;;;;;;-0.01;74.96;100823.16;4487040;31;33621;-70
2022/12/17 18:35:08;;;;;;;52.58;22.55;;;;;;;-0.03;74.72;100830.63;4496911;31;34738;-71
2022/12/17 18:37:36;;;;;;;54.78;22.62;;;;;;;0.03;74.39;100825.25;4493302;31;33935;-71
2022/12/17 18:40:05;;;;;;;56.78;25.80;;;;;;;-0.29;75.69;100825.41;4483882;31;34691;-70
2022/12/17 18:45:19;;;;;;;47.88;21.27;;;;;;;-0.02;74.06;100844.25;4495685;31;34054;-71
2022/12/17 18:47:49;;;;;;;50.28;20.33;;;;;;;-0.10;74.55;100860.41;4483554;31;34628;-70
2022/12/17 18:50:17;;;;;;;50.20;21.65;;;;;;;-0.25;74.78;100858.06;4483151;31;34379;-71
2022/12/17 18:52:44;;;;;;;47.20;19.42;;;;;;;-0.12;74.67;100875.50;4490362;31;33658;-71
2022/12/17 18:55:12;;;;;;;51.03;21.65;;;;;;;-0.04;74.03;100874.69;4487501;31;33943;-71
2022/12/17 18:57:40;;;;;;;48.38;20.80;;;;;;;0.12;73.82;100884.81;4485116;31;33746;-70
2022/12/17 19:00:09;;;;;;;46.30;19.40;;;;;;;0.30;72.60;100880.69;4470772;32;33892;-70
2022/12/17 19:02:36;;;;;;;50.15;22.83;;;;;;;0.24;72.45;100884.28;4483000;32;33418;-70
2022/12/17 19:05:05;;;;;;;44.90;18.10;;;;;;;0.32;72.21;100889.41;4484057;32;34509;-70
2022/12/17 19:07:34;;;;;;;44.45;15.88;;;;;;;0.11;72.55;100895.72;4481175;31;33443;-70
2022/12/17 19:10:01;;;;;;;48.22;21.08;;;;;;;0.03;72.59;100896.59;4480409;32;33626;-70
2022/12/17 19:12:29;;;;;;;50.97;24.12;;;;;;;0.13;72.87;100909.53;4484350;32;33525;-71
2022/12/17 19:14:57;;;;;;;45.85;18.65;;;;;;;0.05;72.94;100910.38;4484961;31;33929;-71
2022/12/17 19:17:26;;;;;;;43.20;18.85;;;;;;;-0.22;73.66;100914.41;4482648;31;34623;-70
2022/12/17 19:19:53;;;;;;;43.65;19.95;;;;;;;-0.18;73.62;100920.72;4478155;32;32358;-71
2022/12/17 19:22:21;;;;;;;43.10;17.00;;;;;;;-0.22;73.95;100931.31;4494704;31;33500;-70
2022/12/17 19:24:49;;;;;;;46.40;18.85;;;;;;;-0.12;72.82;100930.66;4484278;32;33661;-70
2022/12/17 19:27:17;;;;;;;45.15;19.42;;;;;;;-0.29;73.75;100929.78;4489950;31;33507;-71
2022/12/17 19:29:44;;;;;;;40.75;18.73;;;;;;;-0.04;73.06;100929.78;4484370;32;34190;-70
2022/12/17 19:32:16;;;;;;;42.33;17.30;;;;;;;-0.23;73.70;100938.06;4485848;31;32191;-70
2022/12/17 19:34:44;;;;;;;39.50;17.37;;;;;;;-0.48;74.36;100928.59;4484180;32;33886;-71
2022/12/17 19:37:12;;;;;;;37.60;15.95;;;;;;;-0.52;74.74;100929.91;4489302;31;33350;-70
2022/12/17 19:39:41;;;;;;;37.65;15.90;;;;;;;-0.63;75.24;100933.81;4483178;32;34454;-71
2022/12/17 19:42:23;;;;;;;39.45;17.30;;;;;;;-0.73;76.18;100946.31;4495862;31;33187;-70
2022/12/17 19:44:53;;;;;;;52.97;21.05;;;;;;;-0.73;75.80;100941.22;4472445;32;33573;-71
2022/12/17 19:47:22;;;;;;;48.33;20.70;;;;;;;-0.89;76.15;100959.03;4483750;32;33653;-71
2022/12/17 19:49:50;;;;;;;44.78;19.62;;;;;;;-0.76;76.33;100955.25;4485586;31;32189;-71
2022/12/17 19:52:18;;;;;;;48.35;20.60;;;;;;;-0.64;76.11;100965.13;4484894;31;33023;-71
2022/12/17 19:54:47;;;;;;;43.22;19.45;;;;;;;-1.26;77.86;100979.53;4492393;31;33733;-71
2022/12/17 19:57:15;;;;;;;41.22;17.92;;;;;;;-0.47;75.70;100977.09;4483402;32;33790;-71
2022/12/17 19:59:43;;;;;;;50.10;19.25;;;;;;;-0.55;76.40;100987.19;4483534;32;34480;-71
2022/12/17 20:02:11;;;;;;;56.13;25.50;;;;;;;-0.58;75.90;100992.84;4494803;31;33132;-71
2022/12/17 20:04:43;;;;;;;52.17;23.52;;;;;;;-0.61;76.19;100988.34;4478935;31;33669;-70
2022/12/17 20:07:12;;;;;;;49.72;21.17;;;;;;;-0.42;75.27;100995.41;4484584;31;33887;-70
2022/12/17 20:09:42;;;;;;;50.67;21.55;;;;;;;-0.61;76.13;101003.59;4489637;31;34616;-70
2022/12/17 20:12:11;;;;;;;53.70;23.90;;;;;;;-0.62;75.96;101001.81;4491667;31;32583;-70
2022/12/17 20:14:39;;;;;;;44.42;19.30;;;;;;;-0.10;74.59;101003.03;4486849;31;34082;-70
2022/12/17 20:17:08;;;;;;;45.92;19.77;;;;;;;0.31;72.45;101004.84;4495508;31;34510;-70
2022/12/17 20:19:36;;;;;;;45.88;20.98;;;;;;;0.45;71.26;101006.28;4484917;31;33956;-71
2022/12/17 20:22:05;;;;;;;50.95;22.30;;;;;;;0.46;72.10;101013.16;4487371;31;34467;-71
2022/12/17 20:24:32;;;;;;;51.08;20.67;;;;;;;0.90;69.84;101021.94;4485627;32;33452;-71
2022/12/17 20:27:01;;;;;;;46.60;20.33;;;;;;;0.54;70.73;101016.50;4489575;31;33848;-71
2022/12/17 20:29:29;;;;;;;51.37;20.08;;;;;;;0.33;71.42;101025.41;4483261;31;33882;-71
2022/12/17 20:31:57;;;;;;;50.80;21.50;;;;;;;0.04;72.92;101030.88;4491444;31;33228;-71
2022/12/17 20:34:24;;;;;;;49.05;20.98;;;;;;;0.37;72.31;101040.25;4474713;31;33323;-71
2022/12/17 20:36:53;;;;;;;53.20;23.27;;;;;;;-0.45;74.85;101045.97;4485660;31;33699;-71
2022/12/17 20:39:21;;;;;;;52.72;22.42;;;;;;;-0.07;73.59;101054.28;4485996;31;33968;-71
2022/12/17 20:41:55;;;;;;;49.33;21.80;;;;;;;-0.24;74.27;101062.66;4501064;31;34133;-71
2022/12/17 20:44:23;;;;;;;55.58;21.17;;;;;;;0.19;72.81;101052.88;4486757;31;34582;-71
2022/12/17 20:46:51;;;;;;;62.08;24.30;;;;;;;0.30;72.82;101061.63;4485540;32;33437;-71
2022/12/17 20:49:19;;;;;;;58.40;22.48;;;;;;;0.03;73.58;101074.91;4485184;32;34593;-71
2022/12/17 20:51:47;;;;;;;61.30;28.25;;;;;;;0.44;70.84;101065.62;4485302;32;34310;-70
2022/12/17 20:54:15;;;;;;;62.85;25.77;;;;;;;-0.04;73.37;101080.06;4485266;32;34575;-71
2022/12/17 20:56:43;;;;;;;69.90;32.17;;;;;;;0.21;72.36;101085.25;4497084;31;33935;-71
2022/12/17 20:59:16;;;;;;;67.50;30.98;;;;;;;-0.02;73.27;101088.78;4482923;31;32401;-71
2022/12/17 21:01:44;;;;;;;62.45;27.75;;;;;;;0.02;72.87;101090.94;4493900;31;34180;-70
2022/12/17 21:04:17;;;;;;;56.33;23.80;;;;;;;0.11;72.84;101089.34;4487347;31;33857;-70
2022/12/17 21:06:46;;;;;;;52.00;22.77;;;;;;;-0.11;73.44;101096.34;4484108;32;34443;-70
2022/12/17 21:09:17;;;;;;;57.53;24.23;;;;;;;-0.14;73.71;101100.22;4498466;31;34031;-71
2022/12/17 21:11:45;;;;;;;47.88;20.25;;;;;;;-0.05;73.43;101097.00;4490699;31;34187;-71
2022/12/17 21:14:15;;;;;;;50.60;21.73;;;;;;;-0.31;74.38;101106.94;4494549;31;34551;-71
2022/12/17 21:16:43;;;;;;;55.05;23.33;;;;;;;-0.12;73.64;101114.00;4483989;32;34644;-71
2022/12/17 21:19:14;;;;;;;49.28;20.55;;;;;;;-0.09;73.59;101111.81;4497389;31;33704;-71
2022/12/17 21:21:42;;;;;;;57.08;22.00;;;;;;;-0.17;73.94;101110.06;4491068;31;33224;-71
2022/12/17 21:24:10;;;;;;;53.13;22.17;;;;;;;-0.52;75.40;101114.75;4485053;32;34514;-70
2022/12/17 21:26:40;;;;;;;52.92;22.13;;;;;;;-0.25;74.36;101116.88;4485046;32;33778;-71
2022/12/17 21:29:08;;;;;;;50.28;20.62;;;;;;;-0.34;74.46;101121.87;4485471;31;34544;-71
2022/12/17 21:31:44;;;;;;;45.47;19.40;;;;;;;-0.38;75.20;101123.94;4499582;31;34247;-71
2022/12/17 21:34:20;;;;;;;46.53;20.48;;;;;;;-0.49;75.68;101127.84;4500032;31;33810;-71
2022/12/17 21:36:48;;;;;;;;;;;;;;;-0.53;76.09;101125.69;4482528;31;33623;-71
2022/12/17 21:39:17;;;;;;;51.75;22.48;;;;;;;-0.17;74.76;101130.44;4485564;31;34830;-71
2022/12/17 21:43:00;;;;;;;49.17;21.00;;;;;;;-0.38;75.00;101132.47;4482267;31;34217;-71
2022/12/17 21:44:34;;;;;;;49.58;22.35;;;;;;;-0.36;74.95;101142.84;4487417;31;33972;-70
2022/12/17 21:47:01;;;;;;;55.12;21.87;;;;;;;-0.51;75.66;101142.03;4476026;32;33347;-71
2022/12/17 21:49:29;;;;;;;49.80;21.48;;;;;;;-0.36;74.81;101147.91;4484857;32;33670;-71
2022/12/17 21:52:00;;;;;;;50.55;21.10;;;;;;;-0.02;73.29;101158.50;4488614;31;33634;-71
2022/12/17 21:54:28;;;;;;;50.97;21.75;;;;;;;0.57;71.10;101160.50;4483341;31;33032;-71
2022/12/17 21:56:55;;;;;;;49.95;21.60;;;;;;;0.25;71.68;101158.72;4484092;32;33933;-71
2022/12/17 21:59:23;;;;;;;45.33;20.95;;;;;;;0.22;71.85;101158.41;4481770;31;33431;-71
2022/12/17 22:01:51;;;;;;;48.58;21.77;;;;;;;0.19;71.66;101158.97;4485749;31;33690;-71
2022/12/17 22:04:19;;;;;;;48.30;20.52;;;;;;;0.34;71.61;101164.81;4491860;31;32262;-71
2022/12/17 22:06:47;;;;;;;48.70;19.50;;;;;;;0.30;70.96;101172.87;4481555;31;33272;-71
2022/12/17 22:09:27;;;;;;;54.78;20.42;;;;;;;0.18;72.06;101168.28;4481746;31;33926;-71
2022/12/17 22:15:00;;;;;;;46.35;18.50;;;;;;;0.80;70.00;101169.69;4496644;31;33975;-71
2022/12/17 22:17:28;;;;;;;49.75;20.42;;;;;;;0.75;68.80;101181.06;4494620;31;34656;-71
2022/12/17 22:19:55;;;;;;;52.10;21.65;;;;;;;0.17;71.41;101188.47;4491351;31;34362;-71
2022/12/17 22:22:23;;;;;;;51.55;21.42;;;;;;;-0.22;72.90;101189.41;4493249;31;34245;-71
2022/12/17 22:24:50;;;;;;;55.70;23.42;;;;;;;-0.72;76.54;101191.47;4480576;31;34615;-71
2022/12/17 22:27:18;;;;;;;57.10;21.67;;;;;;;-1.21;78.48;101184.31;4493422;31;34671;-71
2022/12/17 22:35:18;;;;;;;57.10;23.20;;;;;;;-1.29;79.79;101190.19;4484487;31;32178;-71
2022/12/17 22:38:05;;;;;;;71.37;26.60;;;;;;;-1.11;79.04;101199.87;4496631;31;33885;-71
2022/12/17 22:40:53;;;;;;;61.20;24.00;;;;;;;-1.67;80.72;101196.88;4478975;31;33748;-71
2022/12/17 22:43:40;;;;;;;63.63;26.50;;;;;;;-1.15;78.87;101199.37;4482147;32;33944;-71
2022/12/17 22:46:30;;;;;;;58.67;23.73;;;;;;;-0.89;77.56;101212.47;4484608;32;33786;-71
2022/12/17 22:48:58;;;;;;;56.37;23.95;;;;;;;-1.06;77.92;101214.03;4480438;31;34812;-71
2022/12/17 22:51:25;;;;;;;62.62;23.23;;;;;;;-1.26;78.86;101216.84;4489969;31;34859;-71
2022/12/17 22:54:04;;;;;;;58.87;23.95;;;;;;;-1.43;79.75;101214.94;4483319;31;34526;-71
2022/12/17 22:56:36;;;;;;;60.33;24.30;;;;;;;-1.44;80.02;101212.22;4468624;31;34301;-72
2022/12/17 22:59:24;;;;;;;58.40;23.52;;;;;;;-1.36;79.59;101211.44;4490688;31;33661;-71
2022/12/17 23:01:52;;;;;;;62.10;24.08;;;;;;;-1.36;79.39;101225.81;4491960;31;33621;-71
2022/12/17 23:04:19;;;;;;;58.97;25.10;;;;;;;-1.31;79.27;101234.88;4493354;31;34209;-71
2022/12/17 23:06:47;;;;;;;59.92;23.80;;;;;;;-1.47;79.64;101235.66;4493681;31;34803;-71
2022/12/17 23:09:17;;;;;;;58.10;22.33;;;;;;;-1.53;80.02;101245.09;4491498;31;33706;-71
2022/12/17 23:11:47;;;;;;;53.72;23.25;;;;;;;-1.54;80.15;101245.81;4493767;31;33923;-71
2022/12/17 23:14:15;;;;;;;57.17;23.62;;;;;;;-1.56;80.16;101247.28;4484755;32;33484;-71
2022/12/17 23:16:43;;;;;;;58.20;23.38;;;;;;;-1.64;80.42;101245.50;4483427;31;34544;-71
2022/12/17 23:19:10;;;;;;;61.75;23.80;;;;;;;-1.73;80.99;101247.88;4491119;31;33312;-71
2022/12/17 23:21:39;;;;;;;52.97;24.12;;;;;;;-1.75;80.84;101254.41;4482603;31;33345;-71
2022/12/17 23:24:07;;;;;;;52.47;23.58;;;;;;;-1.77;80.87;101249.88;4484250;31;33879;-71
2022/12/17 23:26:35;;;;;;;59.08;24.25;;;;;;;-1.78;81.54;101259.12;4485631;31;33783;-71
2022/12/17 23:29:05;;;;;;;61.55;25.95;;;;;;;-1.68;80.80;101258.56;4487273;31;33716;-71
2022/12/17 23:31:38;;;;;;;54.13;21.42;;;;;;;-2.09;81.38;101269.84;4488968;31;33655;-71
2022/12/17 23:34:07;;;;;;;59.17;22.75;;;;;;;-1.52;79.86;101279.03;4487689;31;33270;-71
2022/12/17 23:36:34;;;;;;;58.45;23.62;;;;;;;-1.91;81.22;101277.13;4483882;32;34656;-71
2022/12/17 23:39:02;;;;;;;53.92;24.15;;;;;;;-1.49;79.36;101280.28;4484078;31;33480;-71
2022/12/17 23:41:31;;;;;;;53.97;22.92;;;;;;;-1.36;78.32;101286.81;4494893;31;34144;-71
2022/12/17 23:43:59;;;;;;;53.92;22.15;;;;;;;-1.23;77.93;101295.13;4482091;31;33540;-71
2022/12/17 23:46:27;;;;;;;56.35;23.15;;;;;;;-1.49;78.81;101290.44;4482951;32;34616;-71
2022/12/17 23:48:55;;;;;;;60.85;23.40;;;;;;;-1.65;79.41;101302.13;4483874;32;33883;-71
2022/12/17 23:51:23;;;;;;;54.15;22.37;;;;;;;-1.33;78.25;101302.38;4482471;31;33717;-71
2022/12/17 23:53:51;;;;;;;52.35;22.75;;;;;;;-1.45;79.08;101307.91;4483981;31;33506;-71
2022/12/17 23:56:22;;;;;;;54.42;21.80;;;;;;;-1.57;79.60;101316.59;4484144;31;33872;-71
2022/12/17 23:58:55;;;;;;;51.80;21.40;;;;;;;-1.43;77.93;101314.06;4483839;32;34573;-71
